Time;durP1;ratioP1;P1;durP2;ratioP2;P2;SDS_P1;SDS_P2;PMS_P1;PMS_P2;Temp;Humidity;BMP_temperature;BMP_pressure;BME280_temperature;BME280_humidity;BME280_pressure;Samples;Min_cycle;Max_cycle;Signal;HPM_P1;HPM_P2
2022/08/11 00:01:20;;;;;;;17.80;10.55;;;;;;;;;;5030287;28;20052;-59
2022/08/11 00:04:06;;;;;;;15.07;10.40;;;;;;;;;;5032036;28;20024;-56
2022/08/11 00:06:37;;;;;;;16.45;11.10;;;;;;;;;;5033185;28;20107;-56
2022/08/11 00:09:04;;;;;;;16.98;11.23;;;;;;;;;;5035173;28;20095;-55
2022/08/11 00:11:35;;;;;;;17.38;10.57;;;;;;;;;;5035734;28;20049;-55
2022/08/11 00:14:01;;;;;;;16.38;10.95;;;;;;;;;;5036204;28;20022;-57
2022/08/11 00:16:27;;;;;;;18.10;11.40;;;;;;;;;;5036038;28;20402;-56
2022/08/11 00:18:55;;;;;;;16.83;10.90;;;;;;;;;;5035108;28;20474;-57
2022/08/11 00:21:22;;;;;;;16.80;10.98;;;;;;;;;;5035427;28;20033;-57
2022/08/11 00:23:55;;;;;;;17.70;10.68;;;;;;;;;;5035943;28;20077;-57
2022/08/11 00:26:21;;;;;;;17.05;10.77;;;;;;;;;;5036758;28;20021;-56
2022/08/11 00:28:50;;;;;;;19.27;11.80;;;;;;;;;;5035459;28;20512;-55
2022/08/11 00:31:35;;;;;;;18.15;11.38;;;;;;;;;;5035699;28;20022;-54
2022/08/11 00:34:02;;;;;;;18.08;11.00;;;;;;;;;;5035514;28;20037;-57
2022/08/11 00:36:39;;;;;;;18.92;10.85;;;;;;;;;;5033949;28;20075;-58
2022/08/11 00:39:06;;;;;;;16.95;10.93;;;;;;;;;;5034591;28;20035;-56
2022/08/11 00:41:47;;;;;;;18.17;11.85;;;;;;;;;;5035146;28;20421;-57
2022/08/11 00:44:28;;;;;;;16.45;11.10;;;;;;;;;;5035232;28;20088;-55
2022/08/11 00:47:07;;;;;;;15.55;11.15;;;;;;;;;;5033765;28;20021;-56
2022/08/11 00:49:44;;;;;;;15.38;11.07;;;;;;;;;;5034671;28;20470;-58
2022/08/11 00:52:22;;;;;;;17.13;11.00;;;;;;;;;;5035238;28;20061;-54
2022/08/11 00:55:00;;;;;;;17.05;10.82;;;;;;;;;;5034060;28;20050;-57
2022/08/11 00:57:44;;;;;;;16.00;10.40;;;;;;;;;;5033033;28;20394;-58
2022/08/11 01:00:13;;;;;;;19.00;11.32;;;;;;;;;;5035112;28;20118;-57
2022/08/11 01:02:58;;;;;;;16.98;10.90;;;;;;;;;;5034849;28;20526;-59
2022/08/11 01:05:44;;;;;;;16.10;11.02;;;;;;;;;;5034777;28;20021;-59
2022/08/11 01:08:25;;;;;;;19.80;11.23;;;;;;;;;;5022808;28;20025;-56
2022/08/11 01:10:54;;;;;;;17.63;11.35;;;;;;;;;;5034424;28;20575;-59
2022/08/11 01:13:42;;;;;;;15.55;10.90;;;;;;;;;;5033389;28;20100;-55
2022/08/11 01:16:18;;;;;;;18.08;11.60;;;;;;;;;;5034683;28;20112;-57
2022/08/11 01:18:53;;;;;;;17.40;11.63;;;;;;;;;;5033182;28;20029;-59
2022/08/11 01:21:22;;;;;;;16.88;11.50;;;;;;;;;;5034228;28;20096;-59
2022/08/11 01:24:03;;;;;;;16.38;11.05;;;;;;;;;;5034396;28;20022;-57
2022/08/11 01:26:29;;;;;;;16.55;11.45;;;;;;;;;;5034305;28;20031;-56
2022/08/11 01:28:55;;;;;;;15.85;10.65;;;;;;;;;;5033954;28;20025;-57
2022/08/11 01:31:40;;;;;;;17.33;11.00;;;;;;;;;;5034443;28;20052;-56
2022/08/11 01:34:25;;;;;;;18.65;11.25;;;;;;;;;;5033008;28;20045;-59
2022/08/11 01:37:06;;;;;;;15.95;11.30;;;;;;;;;;5034068;28;20509;-57
2022/08/11 01:39:32;;;;;;;18.65;11.07;;;;;;;;;;5032219;28;20030;-58
2022/08/11 01:44:53;;;;;;;15.98;11.02;;;;;;;;;;5034430;28;20459;-54
2022/08/11 01:47:50;;;;;;;16.17;11.10;;;;;;;;;;5033119;28;20021;-56
2022/08/11 01:50:35;;;;;;;17.38;11.13;;;;;;;;;;5032626;28;20013;-53
2022/08/11 01:53:20;;;;;;;16.00;11.20;;;;;;;;;;5032629;28;20071;-56
2022/08/11 01:55:58;;;;;;;18.95;11.80;;;;;;;;;;5033974;28;20029;-57
2022/08/11 01:58:27;;;;;;;18.92;10.95;;;;;;;;;;5032036;28;20048;-56
2022/08/11 02:01:04;;;;;;;16.88;10.88;;;;;;;;;;5032385;28;20033;-59
2022/08/11 02:03:35;;;;;;;15.73;10.85;;;;;;;;;;5033806;28;20026;-58
2022/08/11 02:06:01;;;;;;;18.30;11.35;;;;;;;;;;5033667;28;20025;-59
2022/08/11 02:08:46;;;;;;;16.98;10.95;;;;;;;;;;5032937;28;20032;-52
2022/08/11 02:11:31;;;;;;;20.67;11.18;;;;;;;;;;5034561;28;20449;-55
2022/08/11 02:13:57;;;;;;;16.65;11.25;;;;;;;;;;5033532;28;20029;-58
2022/08/11 02:16:42;;;;;;;16.25;11.48;;;;;;;;;;5033530;28;20044;-56
2022/08/11 02:24:57;;;;;;;19.75;11.00;;;;;;;;;;5033579;28;20127;-58
2022/08/11 02:27:25;;;;;;;17.33;11.35;;;;;;;;;;5032562;28;20026;-58
2022/08/11 02:29:54;;;;;;;17.25;11.45;;;;;;;;;;5030866;28;20025;-58
2022/08/11 02:35:05;;;;;;;18.30;11.80;;;;;;;;;;5033289;28;20512;-53
2022/08/11 02:37:34;;;;;;;19.92;12.02;;;;;;;;;;5031049;28;20087;-50
2022/08/11 02:40:19;;;;;;;20.27;11.73;;;;;;;;;;5032943;28;20096;-54
2022/08/11 02:42:45;;;;;;;16.73;11.82;;;;;;;;;;5032934;28;20101;-54
2022/08/11 02:45:11;;;;;;;18.23;11.73;;;;;;;;;;5032919;28;20119;-50
2022/08/11 02:50:57;;;;;;;19.52;10.85;;;;;;;;;;5033039;28;20025;-57
2022/08/11 02:53:44;;;;;;;17.15;11.43;;;;;;;;;;5031524;28;20021;-57
2022/08/11 02:56:13;;;;;;;17.55;11.77;;;;;;;;;;5032524;28;20014;-53
2022/08/11 02:58:42;;;;;;;15.95;11.07;;;;;;;;;;5031883;28;20014;-59
2022/08/11 03:01:27;;;;;;;17.45;11.18;;;;;;;;;;5032571;28;20022;-56
2022/08/11 03:03:58;;;;;;;17.60;11.27;;;;;;;;;;5032670;28;20028;-53
2022/08/11 03:06:43;;;;;;;17.27;10.85;;;;;;;;;;5032596;28;20029;-54
2022/08/11 03:09:17;;;;;;;16.67;11.10;;;;;;;;;;5030076;28;20041;-55
2022/08/11 03:17:33;;;;;;;15.85;11.20;;;;;;;;;;5031438;28;20099;-58
2022/08/11 03:20:28;;;;;;;17.85;12.30;;;;;;;;;;5032285;28;20044;-54
2022/08/11 03:22:57;;;;;;;18.52;11.30;;;;;;;;;;5012464;28;20576;-54
2022/08/11 03:25:42;;;;;;;16.95;10.88;;;;;;;;;;5032083;28;20029;-57
2022/08/11 03:28:20;;;;;;;16.00;11.57;;;;;;;;;;5031344;28;20036;-56
2022/08/11 03:30:46;;;;;;;;;;;;;;;;;;5032346;28;20485;-58
2022/08/11 03:36:36;;;;;;;16.65;11.38;;;;;;;;;;5032111;28;20508;-57
2022/08/11 03:39:05;;;;;;;19.75;12.55;;;;;;;;;;5031261;28;20100;-54
2022/08/11 03:41:55;;;;;;;19.80;11.98;;;;;;;;;;5030166;28;20083;-56
2022/08/11 03:44:25;;;;;;;16.17;11.77;;;;;;;;;;5032216;28;20083;-55
2022/08/11 03:47:00;;;;;;;17.00;12.32;;;;;;;;;;5031988;28;20381;-56
2022/08/11 03:49:37;;;;;;;17.08;12.00;;;;;;;;;;5031090;28;20029;-53
2022/08/11 03:52:13;;;;;;;17.30;11.63;;;;;;;;;;5031929;28;20028;-59
2022/08/11 03:55:01;;;;;;;17.27;12.02;;;;;;;;;;5031764;28;20260;-56
2022/08/11 03:57:29;;;;;;;15.52;11.05;;;;;;;;;;5030886;28;20037;-55
2022/08/11 04:00:14;;;;;;;17.00;11.57;;;;;;;;;;5031650;28;20029;-55
2022/08/11 04:03:00;;;;;;;18.55;12.38;;;;;;;;;;5030216;28;20047;-53
2022/08/11 04:05:32;;;;;;;17.90;12.00;;;;;;;;;;5027599;28;20087;-57
2022/08/11 04:08:17;;;;;;;22.30;14.82;;;;;;;;;;5031013;28;20032;-57
2022/08/11 04:10:49;;;;;;;19.88;13.23;;;;;;;;;;5031469;28;20079;-56
2022/08/11 04:13:30;;;;;;;21.45;14.25;;;;;;;;;;5031563;28;20519;-56
2022/08/11 04:16:15;;;;;;;20.23;13.70;;;;;;;;;;5030890;28;20436;-51
2022/08/11 04:19:00;;;;;;;19.30;12.30;;;;;;;;;;5029959;28;20032;-49
2022/08/11 04:21:35;;;;;;;16.92;11.20;;;;;;;;;;5031458;28;20068;-52
2022/08/11 04:24:13;;;;;;;18.83;11.73;;;;;;;;;;5031691;28;20025;-58
2022/08/11 04:26:45;;;;;;;19.83;11.98;;;;;;;;;;5031453;28;20030;-57
2022/08/11 04:29:24;;;;;;;18.23;11.93;;;;;;;;;;5030868;28;20083;-55
2022/08/11 04:31:50;;;;;;;19.45;11.77;;;;;;;;;;5031469;28;20036;-57
2022/08/11 04:34:35;;;;;;;17.45;12.20;;;;;;;;;;5030182;28;20033;-57
2022/08/11 04:39:58;;;;;;;21.13;11.27;;;;;;;;;;5031262;28;20036;-54
2022/08/11 04:45:46;;;;;;;25.55;11.60;;;;;;;;;;5031423;28;20029;-57
2022/08/11 05:03:04;;;;;;;18.30;12.02;;;;;;;;;;5047936;28;20032;-58
2022/08/11 05:05:30;;;;;;;21.10;13.27;;;;;;;;;;5034453;28;20036;-55
2022/08/11 05:08:09;;;;;;;17.25;12.35;;;;;;;;;;5046925;28;20206;-57
2022/08/11 05:10:35;;;;;;;17.80;12.25;;;;;;;;;;5054432;28;20447;-58
2022/08/11 05:35:55;;;;;;;22.88;13.20;;;;;;;;;;5054000;28;20071;-58
2022/08/11 05:58:01;;;;;;;20.40;13.05;;;;;;;;;;5053004;28;20036;-61
2022/08/11 06:00:28;;;;;;;18.67;12.57;;;;;;;;;;5052060;28;20029;-60
2022/08/11 06:02:56;;;;;;;21.60;12.32;;;;;;;;;;5052416;28;20025;-59
2022/08/11 06:05:22;;;;;;;19.13;12.30;;;;;;;;;;5053088;28;20452;-57
2022/08/11 06:07:49;;;;;;;20.92;12.82;;;;;;;;;;5052361;28;20075;-58
2022/08/11 06:10:24;;;;;;;20.55;12.60;;;;;;;;;;5053148;28;20498;-63
2022/08/11 06:12:54;;;;;;;27.65;13.45;;;;;;;;;;5053224;28;20095;-63
2022/08/11 06:15:21;;;;;;;19.52;12.38;;;;;;;;;;5052776;28;20024;-60
2022/08/11 06:17:50;;;;;;;21.73;12.90;;;;;;;;;;5052073;28;20036;-63
2022/08/11 06:20:18;;;;;;;18.10;12.13;;;;;;;;;;5052931;28;20021;-63
2022/08/11 06:22:54;;;;;;;18.23;11.98;;;;;;;;;;5052804;28;20048;-63
2022/08/11 06:25:21;;;;;;;19.48;12.18;;;;;;;;;;5052865;28;20067;-61
2022/08/11 06:27:55;;;;;;;21.80;13.07;;;;;;;;;;5052195;28;20477;-63
2022/08/11 06:30:33;;;;;;;17.38;12.23;;;;;;;;;;5053160;28;20032;-59
2022/08/11 06:33:00;;;;;;;20.10;12.65;;;;;;;;;;5052834;28;20021;-63
2022/08/11 06:35:36;;;;;;;21.98;11.90;;;;;;;;;;5053109;28;20393;-63
2022/08/11 06:38:02;;;;;;;18.15;12.52;;;;;;;;;;5051585;28;20059;-62
2022/08/11 06:40:28;;;;;;;17.98;12.18;;;;;;;;;;5052492;28;20385;-63
2022/08/11 06:43:04;;;;;;;17.50;12.10;;;;;;;;;;5052493;28;20032;-59
2022/08/11 06:45:39;;;;;;;18.50;12.52;;;;;;;;;;5052195;28;20062;-63
2022/08/11 06:48:09;;;;;;;20.50;12.52;;;;;;;;;;5051649;28;20032;-63
2022/08/11 06:53:21;;;;;;;17.42;12.82;;;;;;;;;;5052441;28;20135;-61
2022/08/11 07:01:35;;;;;;;18.45;12.52;;;;;;;;;;5052466;28;20504;-60
2022/08/11 07:04:06;;;;;;;17.92;12.95;;;;;;;;;;5050909;28;20090;-58
2022/08/11 07:06:38;;;;;;;17.85;12.27;;;;;;;;;;5050687;28;20033;-60
2022/08/11 07:29:02;;;;;;;19.77;12.90;;;;;;;;;;5050883;28;20111;-58
2022/08/11 07:31:28;;;;;;;16.42;12.10;;;;;;;;;;5051859;28;20094;-60
2022/08/11 07:34:03;;;;;;;17.08;11.80;;;;;;;;;;5051622;28;20025;-61
2022/08/11 07:36:30;;;;;;;20.92;11.95;;;;;;;;;;5051831;28;20033;-59
2022/08/11 07:38:57;;;;;;;17.67;11.98;;;;;;;;;;5050511;28;20397;-59
2022/08/11 07:41:23;;;;;;;16.90;12.18;;;;;;;;;;5050198;28;20032;-58
2022/08/11 07:43:54;;;;;;;19.20;11.80;;;;;;;;;;5050411;28;20481;-60
2022/08/11 07:54:39;;;;;;;17.63;12.20;;;;;;;;;;5051949;28;20039;-59
2022/08/11 08:19:12;;;;;;;17.40;12.35;;;;;;;;;;5051281;28;20090;-59
2022/08/11 08:21:38;;;;;;;16.73;12.73;;;;;;;;;;5051378;28;20021;-60
2022/08/11 08:24:06;;;;;;;17.65;12.50;;;;;;;;;;5051173;28;20166;-60
2022/08/11 08:32:05;;;;;;;17.08;12.38;;;;;;;;;;5055227;28;20404;-61
2022/08/11 08:34:31;;;;;;;16.33;12.77;;;;;;;;;;5053939;28;20473;-62
2022/08/11 08:36:57;;;;;;;18.48;13.07;;;;;;;;;;5055388;28;20029;-61
2022/08/11 08:39:23;;;;;;;19.27;13.35;;;;;;;;;;5054004;28;20036;-60
2022/08/11 08:41:53;;;;;;;19.83;12.65;;;;;;;;;;5054649;28;20032;-58
2022/08/11 08:44:20;;;;;;;17.60;13.10;;;;;;;;;;5054583;28;20021;-60
2022/08/11 08:46:54;;;;;;;19.88;13.60;;;;;;;;;;5055057;28;20028;-61
2022/08/11 08:49:27;;;;;;;19.63;13.00;;;;;;;;;;5054106;28;20067;-61
2022/08/11 08:51:54;;;;;;;17.52;12.73;;;;;;;;;;5053773;28;20025;-61
2022/08/11 08:54:27;;;;;;;18.63;13.02;;;;;;;;;;5054720;28;20032;-61
2022/08/11 08:56:54;;;;;;;20.65;13.77;;;;;;;;;;5053257;28;20027;-61
2022/08/11 08:59:21;;;;;;;20.70;13.40;;;;;;;;;;5053619;28;20056;-61
2022/08/11 09:02:01;;;;;;;20.42;13.55;;;;;;;;;;5052988;28;20456;-61
2022/08/11 09:04:28;;;;;;;17.55;13.80;;;;;;;;;;5053468;28;20044;-61
2022/08/11 09:06:55;;;;;;;17.92;13.60;;;;;;;;;;5054622;28;20035;-61
2022/08/11 09:09:21;;;;;;;22.55;14.38;;;;;;;;;;5053729;28;20040;-62
2022/08/11 09:11:54;;;;;;;16.70;13.05;;;;;;;;;;5053351;28;20028;-61
2022/08/11 09:17:22;;;;;;;16.95;13.25;;;;;;;;;;5053912;28;20052;-61
2022/08/11 09:19:57;;;;;;;20.20;13.20;;;;;;;;;;5054455;28;20075;-62
2022/08/11 09:27:55;;;;;;;18.83;14.45;;;;;;;;;;5053181;28;20028;-61
2022/08/11 09:30:24;;;;;;;18.50;13.40;;;;;;;;;;5052527;28;20032;-61
2022/08/11 09:32:52;;;;;;;18.60;13.00;;;;;;;;;;5054057;28;20031;-61
2022/08/11 09:35:18;;;;;;;17.30;13.35;;;;;;;;;;5054136;28;20100;-60
2022/08/11 09:40:29;;;;;;;18.52;13.63;;;;;;;;;;5053233;28;20171;-59
2022/08/11 09:45:49;;;;;;;16.80;13.68;;;;;;;;;;5053994;28;20063;-61
2022/08/11 09:48:16;;;;;;;18.23;14.27;;;;;;;;;;5052849;28;20074;-61
2022/08/11 09:50:44;;;;;;;18.15;14.27;;;;;;;;;;5052615;28;20021;-60
2022/08/11 09:53:11;;;;;;;17.90;13.67;;;;;;;;;;5051053;28;20032;-61
2022/08/11 09:55:38;;;;;;;19.33;13.85;;;;;;;;;;5053329;28;20386;-61
2022/08/11 09:58:15;;;;;;;18.45;13.55;;;;;;;;;;5052828;28;20025;-61
2022/08/11 10:00:42;;;;;;;19.30;13.75;;;;;;;;;;5040809;28;20032;-61
2022/08/11 10:03:24;;;;;;;18.10;13.57;;;;;;;;;;5033165;28;20117;-61
2022/08/11 10:08:38;;;;;;;;;;;;;;;;;;5033538;28;20496;-59
2022/08/11 10:11:06;;;;;;;20.08;14.15;;;;;;;;;;5033071;28;19913;-61
2022/08/11 10:15:32;;;;;;;19.77;14.00;;;;;;;;;;5039376;28;20028;-58
2022/08/11 10:16:25;;;;;;;20.08;13.32;;;;;;;;;;5052598;28;20063;-59
2022/08/11 10:18:51;;;;;;;18.73;14.02;;;;;;;;;;5052015;28;20492;-59
2022/08/11 10:21:17;;;;;;;17.23;13.20;;;;;;;;;;5051329;28;20037;-52
2022/08/11 10:34:46;;;;;;;19.17;14.27;;;;;;;;;;5052907;28;20036;-57
2022/08/11 10:37:12;;;;;;;17.60;13.13;;;;;;;;;;5051827;28;20099;-57
2022/08/11 10:39:39;;;;;;;18.65;13.90;;;;;;;;;;5052121;28;20029;-58
2022/08/11 10:44:53;;;;;;;17.15;13.43;;;;;;;;;;5052425;28;20082;-59
2022/08/11 10:47:35;;;;;;;18.27;13.93;;;;;;;;;;5050824;28;20028;-59
2022/08/11 10:58:49;;;;;;;18.05;12.68;;;;;;;;;;5051355;28;20389;-57
2022/08/11 11:01:16;;;;;;;17.20;12.70;;;;;;;;;;5052006;28;20027;-57
2022/08/11 11:03:42;;;;;;;16.93;12.57;;;;;;;;;;5050462;28;20032;-56
2022/08/11 11:06:10;;;;;;;19.73;12.52;;;;;;;;;;5052015;28;20013;-50
2022/08/11 11:08:54;;;;;;;18.20;13.15;;;;;;;;;;5050726;28;20029;-57
2022/08/11 11:11:22;;;;;;;20.92;13.35;;;;;;;;;;5051647;28;20037;-56
2022/08/11 11:19:27;;;;;;;19.02;12.85;;;;;;;;;;5049825;28;20076;-53
2022/08/11 11:22:36;;;;;;;18.20;13.00;;;;;;;;;;5051420;28;20020;-54
2022/08/11 11:24:45;;;;;;;16.88;12.93;;;;;;;;;;5051360;28;20385;-58
2022/08/11 11:27:20;;;;;;;18.35;13.30;;;;;;;;;;5051165;28;20031;-56
2022/08/11 11:30:02;;;;;;;18.73;13.07;;;;;;;;;;5051356;28;20025;-56
2022/08/11 11:32:28;;;;;;;17.75;13.13;;;;;;;;;;5036972;28;20025;-53
2022/08/11 11:35:08;;;;;;;18.02;12.90;;;;;;;;;;5031866;28;20029;-55
2022/08/11 11:37:35;;;;;;;20.17;12.93;;;;;;;;;;5030487;28;20021;-55
2022/08/11 11:40:02;;;;;;;18.45;12.95;;;;;;;;;;5031636;28;20025;-57
2022/08/11 11:42:29;;;;;;;18.48;14.10;;;;;;;;;;5031589;28;20029;-55
2022/08/11 11:44:55;;;;;;;16.27;13.10;;;;;;;;;;5031561;28;20033;-58
2022/08/11 11:47:21;;;;;;;17.17;13.20;;;;;;;;;;5030661;28;20036;-54
2022/08/11 11:49:48;;;;;;;16.83;13.45;;;;;;;;;;5030681;28;20022;-56
2022/08/11 11:52:19;;;;;;;16.95;13.43;;;;;;;;;;5031369;28;20426;-57
2022/08/11 11:54:49;;;;;;;16.23;13.30;;;;;;;;;;5031141;28;20029;-56
2022/08/11 12:02:54;;;;;;;20.27;13.52;;;;;;;;;;5053327;28;20052;-56
2022/08/11 12:05:22;;;;;;;17.42;13.20;;;;;;;;;;5055218;28;20108;-66
2022/08/11 12:10:33;;;;;;;17.95;13.77;;;;;;;;;;5055440;28;20040;-66
2022/08/11 12:15:47;;;;;;;18.77;13.95;;;;;;;;;;5055431;28;20047;-66
2022/08/11 12:18:13;;;;;;;16.80;13.48;;;;;;;;;;5054412;28;20342;-66
2022/08/11 12:20:40;;;;;;;18.30;13.37;;;;;;;;;;5055242;28;20029;-66
2022/08/11 12:28:38;;;;;;;17.98;13.60;;;;;;;;;;5054038;28;20067;-66
2022/08/11 12:31:04;;;;;;;;;;;;;;;;;;5055140;28;20024;-66
2022/08/11 12:33:30;;;;;;;18.90;14.40;;;;;;;;;;5054545;28;19973;-66
2022/08/11 12:35:58;;;;;;;17.27;14.15;;;;;;;;;;5054796;28;20021;-66
2022/08/11 12:38:25;;;;;;;19.35;14.32;;;;;;;;;;5053654;28;20025;-65
2022/08/11 12:46:30;;;;;;;17.83;14.85;;;;;;;;;;5061921;28;20025;-64
2022/08/11 12:52:03;;;;;;;18.45;14.02;;;;;;;;;;5054391;28;20036;-65
2022/08/11 12:54:34;;;;;;;16.25;13.77;;;;;;;;;;5054309;28;20021;-65
2022/08/11 13:05:19;;;;;;;17.13;14.68;;;;;;;;;;5048910;28;20127;-65
2022/08/11 13:07:46;;;;;;;17.83;15.20;;;;;;;;;;5034484;28;20362;-65
2022/08/11 13:10:12;;;;;;;;;;;;;;;;;;5034155;28;20057;-65
2022/08/11 13:12:48;;;;;;;21.90;18.10;;;;;;;;;;5033464;28;20281;-65
2022/08/11 13:15:20;;;;;;;18.10;14.52;;;;;;;;;;5032795;28;20025;-64
2022/08/11 13:17:51;;;;;;;17.67;13.85;;;;;;;;;;5032199;28;20268;-64
2022/08/11 13:20:21;;;;;;;18.30;13.80;;;;;;;;;;5032657;28;20040;-66
2022/08/11 13:22:52;;;;;;;17.63;14.73;;;;;;;;;;5034084;28;20537;-64
2022/08/11 13:25:20;;;;;;;18.20;14.15;;;;;;;;;;5033670;28;20021;-65
2022/08/11 13:27:47;;;;;;;18.25;14.90;;;;;;;;;;5033419;28;20402;-65
2022/08/11 13:33:03;;;;;;;18.95;14.60;;;;;;;;;;5034169;28;20109;-64
2022/08/11 13:35:29;;;;;;;;;;;;;;;;;;5034498;28;20029;-64
2022/08/11 13:37:55;;;;;;;16.63;14.18;;;;;;;;;;5033497;28;19905;-65
2022/08/11 13:40:23;;;;;;;17.23;14.60;;;;;;;;;;5033830;28;20032;-65
2022/08/11 13:42:50;;;;;;;18.40;14.23;;;;;;;;;;5032207;28;20029;-62
2022/08/11 13:45:16;;;;;;;;;;;;;;;;;;5032556;28;20038;-62
2022/08/11 13:47:42;;;;;;;17.90;15.07;;;;;;;;;;5032959;28;19912;-64
2022/08/11 13:50:11;;;;;;;17.77;14.30;;;;;;;;;;4685700;28;9999822;-65
2022/08/11 13:52:38;;;;;;;18.27;13.48;;;;;;;;;;5047972;28;20017;-65
2022/08/11 13:55:05;;;;;;;17.27;13.48;;;;;;;;;;5044271;28;20112;-65
2022/08/11 13:57:32;;;;;;;17.77;14.00;;;;;;;;;;5029368;28;20030;-66
2022/08/11 14:00:08;;;;;;;17.15;14.45;;;;;;;;;;5034437;28;20124;-66
2022/08/11 14:02:35;;;;;;;19.15;15.15;;;;;;;;;;5031444;28;20027;-65
2022/08/11 14:05:01;;;;;;;;;;;;;;;;;;5034453;28;20037;-66
2022/08/11 14:07:34;;;;;;;18.98;13.43;;;;;;;;;;5037574;28;20765;-66
2022/08/11 14:10:00;;;;;;;20.55;14.18;;;;;;;;;;5057211;28;20052;-65
2022/08/11 14:15:18;;;;;;;19.15;15.43;;;;;;;;;;5053647;28;20417;-66
2022/08/11 14:17:45;;;;;;;17.00;14.65;;;;;;;;;;5051540;28;20024;-65
2022/08/11 14:20:11;;;;;;;;;;;;;;;;;;5052731;28;20032;-66
2022/08/11 14:22:40;;;;;;;17.13;14.68;;;;;;;;;;5050095;28;20328;-65
2022/08/11 14:25:06;;;;;;;18.67;14.50;;;;;;;;;;5043761;28;20100;-66
2022/08/11 14:27:32;;;;;;;17.90;13.70;;;;;;;;;;5031150;28;20466;-66
2022/08/11 14:30:00;;;;;;;18.00;15.00;;;;;;;;;;4696086;28;10000012;-64
2022/08/11 14:32:26;;;;;;;19.20;14.52;;;;;;;;;;5049120;28;20099;-64
2022/08/11 14:34:53;;;;;;;17.35;14.25;;;;;;;;;;5048603;28;20366;-65
2022/08/11 14:37:20;;;;;;;19.52;14.43;;;;;;;;;;5048605;28;20020;-66
2022/08/11 14:39:46;;;;;;;18.83;14.60;;;;;;;;;;5049200;28;20033;-66
2022/08/11 14:47:50;;;;;;;19.45;14.60;;;;;;;;;;5048202;28;20051;-66
2022/08/11 14:50:22;;;;;;;16.60;13.90;;;;;;;;;;5049410;28;20025;-67
2022/08/11 14:53:03;;;;;;;17.40;14.30;;;;;;;;;;5047834;28;20108;-66
2022/08/11 14:58:17;;;;;;;17.20;14.07;;;;;;;;;;5048587;28;20039;-65
2022/08/11 15:00:47;;;;;;;17.55;14.85;;;;;;;;;;5042438;28;20024;-65
2022/08/11 15:03:13;;;;;;;18.92;14.73;;;;;;;;;;5039010;28;20021;-66
2022/08/11 15:05:50;;;;;;;18.77;14.90;;;;;;;;;;5036596;28;20025;-64
2022/08/11 15:08:17;;;;;;;19.20;14.32;;;;;;;;;;5035713;28;20108;-65
2022/08/11 15:10:44;;;;;;;18.48;16.48;;;;;;;;;;5034952;28;20029;-67
2022/08/11 15:13:10;;;;;;;16.42;14.27;;;;;;;;;;5040840;28;20033;-66
2022/08/11 15:18:25;;;;;;;17.73;15.27;;;;;;;;;;5037836;28;20036;-66
2022/08/11 15:37:36;;;;;;;20.42;17.48;;;;;;;;;;5027849;28;20570;-67
2022/08/11 15:45:49;;;;;;;20.13;14.77;;;;;;;;;;5028464;28;20132;-67
2022/08/11 15:48:45;;;;;;;18.23;14.50;;;;;;;;;;5029362;28;20035;-67
2022/08/11 15:51:21;;;;;;;17.43;14.10;;;;;;;;;;5026723;28;20513;-68
2022/08/11 15:53:50;;;;;;;17.85;13.80;;;;;;;;;;5047767;28;20272;-67
2022/08/11 15:56:17;;;;;;;17.30;14.20;;;;;;;;;;5047924;28;20086;-68
2022/08/11 16:04:18;;;;;;;17.50;14.93;;;;;;;;;;5048626;28;20067;-68
2022/08/11 16:07:04;;;;;;;19.08;14.80;;;;;;;;;;5048877;28;20017;-68
2022/08/11 16:09:43;;;;;;;17.10;14.20;;;;;;;;;;5039271;28;20052;-68
2022/08/11 16:12:10;;;;;;;18.75;14.25;;;;;;;;;;5028554;28;20026;-64
2022/08/11 16:17:26;;;;;;;17.67;13.95;;;;;;;;;;5028078;28;20040;-67
2022/08/11 16:19:54;;;;;;;16.77;14.60;;;;;;;;;;5028623;28;20512;-66
2022/08/11 16:22:31;;;;;;;18.70;14.50;;;;;;;;;;5029776;28;20061;-67
2022/08/11 16:24:58;;;;;;;20.63;13.77;;;;;;;;;;5032430;28;20044;-66
2022/08/11 16:27:25;;;;;;;17.73;14.05;;;;;;;;;;5050312;28;20025;-65
2022/08/11 16:29:51;;;;;;;16.70;14.35;;;;;;;;;;5051083;28;20030;-66
2022/08/11 16:32:22;;;;;;;17.33;14.18;;;;;;;;;;5051222;28;20055;-67
2022/08/11 16:40:24;;;;;;;18.52;14.32;;;;;;;;;;5048206;28;20036;-66
2022/08/11 16:48:23;;;;;;;18.42;15.70;;;;;;;;;;5047427;28;20175;-65
2022/08/11 16:50:49;;;;;;;18.58;14.65;;;;;;;;;;5050028;28;20400;-65
2022/08/11 16:53:18;;;;;;;18.77;15.85;;;;;;;;;;5051920;28;20467;-66
2022/08/11 16:55:46;;;;;;;20.35;18.15;;;;;;;;;;5050756;28;20036;-66
2022/08/11 17:00:59;;;;;;;19.38;16.20;;;;;;;;;;5051440;28;20413;-66
2022/08/11 17:14:41;;;;;;;17.42;13.65;;;;;;;;;;5053490;28;20067;-66
2022/08/11 17:17:14;;;;;;;17.05;14.40;;;;;;;;;;5053495;28;20025;-69
2022/08/11 17:19:44;;;;;;;17.35;13.90;;;;;;;;;;5053665;28;20503;-68
2022/08/11 17:24:56;;;;;;;17.77;14.60;;;;;;;;;;5040315;28;20028;-66
2022/08/11 17:27:22;;;;;;;19.57;14.30;;;;;;;;;;5041382;28;20029;-66
2022/08/11 17:29:57;;;;;;;19.27;14.20;;;;;;;;;;5044033;28;20040;-68
2022/08/11 17:37:55;;;;;;;18.02;13.85;;;;;;;;;;5048884;28;20039;-65
2022/08/11 17:40:24;;;;;;;18.80;13.88;;;;;;;;;;5038358;28;20405;-65
2022/08/11 17:48:28;;;;;;;18.33;13.93;;;;;;;;;;5035360;28;20035;-66
2022/08/11 17:51:05;;;;;;;17.25;14.13;;;;;;;;;;5050496;28;20024;-67
2022/08/11 18:01:54;;;;;;;17.50;14.10;;;;;;;;;;5029968;28;20555;-61
2022/08/11 18:04:21;;;;;;;;;;;;;;;;;;5030852;28;20502;-61
2022/08/11 18:06:47;;;;;;;20.83;14.50;;;;;;;;;;5030297;28;19913;-61
